Lawton, North Dakota
Current Conditions -  °F | °C
As of 12:55 AM on Tuesday 21 Oct 2014 (Local Time) from KDVL Reporting Station
Clear Clear  
Wind Chill: 41°   Ceiling: Unl
Heat Index: 46°   Visibility: 10mi
Dew Point: 37°   Wind: 12mph
Humidity: 71%   Direction: 140°SE
Pressure: 29.97"   Gusts: NA
Location:  48.3°N, 98.37°W
Report Text: KDVL 210555Z AUTO 14010KT 10SM CLR 08/03 A2997 RMK AO1 10130 20080 54000
Loading
Personal Weather Stations






























Interactive Weather Map
Tropical Storm Tracking
New forecast layout! Learn more

10-Day Weather Forecast

Advertisements
Track Severe Weather on mobile